Pagina principale
METAR-TAF:

METAR-TAF

Aeroporti :

Aeroporto di Saragozza

Saragozza, Spagna

latitudine: 41-40N, longitudine: 001-01W, altezza: 263 m

Osservazione

Il bollettino è stato emesso 29 minuti fa, alle 22:30 UTC
Vento 1 kt da sud-est
Temperature 10°C
Umidità 87%
Pressione 1027 hPa
Visibilità 10 km o più
nessuna nube inferiore a 1500 m e nessun cumulonembo

METAR: LEZG 292230Z 14001KT CAVOK 10/08 Q1027

Ora: 23:59 (22:59 UTC)

Previsione

Il bollettino è stato emesso 5 ore e 59 minuti fa, alle 17:00 UTC
Previsione valida dal 29 alle 18 UTC al 30 alle 18 UTC
Vento 4 kt da direzioni variabili
Visibilità 10 km o più
nessuna nube inferiore a 1500 m e nessun cumulonembo

TAF: LEZG 291700Z 2918/3018 VRB04KT CAVOK TX22/3013Z TN08/3005Z

Osservazioni e previsioni meteorologiche di più di 4000 aeroporti (messaggi METAR e TAF).

Le stazioni disponibili sono rappresentate dai dischi gialli e rossi sulla carta.

Puntare il mouse per vedere il nome della stazione.

Clicca sopra per visualizzare le osservazioni e previsioni meteorologiche.

Per cambiare la mappa : fare clic sui pulsanti verdi con una croce nera per ingrandire, il pulsante verde con un trattino per diminuire, o sulla freccia verde per le mappe adiacenti.


METAR-TAF: